sensor_id;sensor_type;location;lat;lon;timestamp;temperature;humidity
51719;DHT22;37795;53.236;5.704;2023-02-23T00:01:48;7.30;85.40
51719;DHT22;37795;53.236;5.704;2023-02-23T00:04:14;7.30;85.30
51719;DHT22;37795;53.236;5.704;2023-02-23T00:06:40;7.40;85.40
51719;DHT22;37795;53.236;5.704;2023-02-23T00:09:06;7.40;85.30
51719;DHT22;37795;53.236;5.704;2023-02-23T00:11:36;7.40;85.30
51719;DHT22;37795;53.236;5.704;2023-02-23T00:14:02;7.50;85.40
51719;DHT22;37795;53.236;5.704;2023-02-23T00:16:28;7.50;85.30
51719;DHT22;37795;53.236;5.704;2023-02-23T00:18:56;7.50;85.20
51719;DHT22;37795;53.236;5.704;2023-02-23T00:21:33;7.60;85.10
51719;DHT22;37795;53.236;5.704;2023-02-23T00:24:05;7.50;85.00
51719;DHT22;37795;53.236;5.704;2023-02-23T00:26:33;7.50;85.00
51719;DHT22;37795;53.236;5.704;2023-02-23T00:29:00;7.60;85.10
51719;DHT22;37795;53.236;5.704;2023-02-23T00:31:27;7.60;85.10
51719;DHT22;37795;53.236;5.704;2023-02-23T00:33:54;7.60;85.20
51719;DHT22;37795;53.236;5.704;2023-02-23T00:36:23;7.70;85.10
51719;DHT22;37795;53.236;5.704;2023-02-23T00:38:52;7.70;85.10
51719;DHT22;37795;53.236;5.704;2023-02-23T00:41:19;7.70;85.20
51719;DHT22;37795;53.236;5.704;2023-02-23T00:43:47;7.70;85.20
51719;DHT22;37795;53.236;5.704;2023-02-23T00:46:17;7.80;85.30
51719;DHT22;37795;53.236;5.704;2023-02-23T00:48:45;7.80;85.30
51719;DHT22;37795;53.236;5.704;2023-02-23T00:51:12;7.80;85.20
51719;DHT22;37795;53.236;5.704;2023-02-23T00:53:38;7.80;85.20
51719;DHT22;37795;53.236;5.704;2023-02-23T00:56:04;7.80;85.20
51719;DHT22;37795;53.236;5.704;2023-02-23T00:58:30;7.80;85.20
51719;DHT22;37795;53.236;5.704;2023-02-23T01:00:56;7.90;85.10
51719;DHT22;37795;53.236;5.704;2023-02-23T01:03:28;7.80;85.20
51719;DHT22;37795;53.236;5.704;2023-02-23T01:06:00;7.80;85.10
51719;DHT22;37795;53.236;5.704;2023-02-23T01:08:30;7.80;85.20
51719;DHT22;37795;53.236;5.704;2023-02-23T01:10:57;7.80;85.10
51719;DHT22;37795;53.236;5.704;2023-02-23T01:13:23;7.80;85.20
51719;DHT22;37795;53.236;5.704;2023-02-23T01:15:48;7.80;85.10
51719;DHT22;37795;53.236;5.704;2023-02-23T01:18:15;7.70;85.10
51719;DHT22;37795;53.236;5.704;2023-02-23T01:20:41;7.70;85.10
51719;DHT22;37795;53.236;5.704;2023-02-23T01:23:08;7.80;85.20
51719;DHT22;37795;53.236;5.704;2023-02-23T01:25:34;7.80;85.30
51719;DHT22;37795;53.236;5.704;2023-02-23T01:28:01;7.80;85.20
51719;DHT22;37795;53.236;5.704;2023-02-23T01:30:26;7.90;85.20
51719;DHT22;37795;53.236;5.704;2023-02-23T01:32:52;7.90;85.20
51719;DHT22;37795;53.236;5.704;2023-02-23T01:35:18;7.80;85.10
51719;DHT22;37795;53.236;5.704;2023-02-23T01:37:44;7.80;85.10
51719;DHT22;37795;53.236;5.704;2023-02-23T01:40:13;7.80;85.20
51719;DHT22;37795;53.236;5.704;2023-02-23T01:42:45;7.90;85.10
51719;DHT22;37795;53.236;5.704;2023-02-23T01:47:51;7.80;85.00
51719;DHT22;37795;53.236;5.704;2023-02-23T01:50:17;7.70;85.00
51719;DHT22;37795;53.236;5.704;2023-02-23T01:52:44;7.70;85.00
51719;DHT22;37795;53.236;5.704;2023-02-23T01:55:11;7.70;85.00
51719;DHT22;37795;53.236;5.704;2023-02-23T01:57:38;7.70;85.10
51719;DHT22;37795;53.236;5.704;2023-02-23T02:00:06;7.60;84.90
51719;DHT22;37795;53.236;5.704;2023-02-23T02:02:38;7.70;85.00
51719;DHT22;37795;53.236;5.704;2023-02-23T02:05:04;7.70;84.90
51719;DHT22;37795;53.236;5.704;2023-02-23T02:07:36;7.70;85.00
51719;DHT22;37795;53.236;5.704;2023-02-23T02:10:05;7.70;84.80
51719;DHT22;37795;53.236;5.704;2023-02-23T02:12:38;7.70;84.80
51719;DHT22;37795;53.236;5.704;2023-02-23T02:15:07;7.70;84.70
51719;DHT22;37795;53.236;5.704;2023-02-23T02:20:28;7.50;84.50
51719;DHT22;37795;53.236;5.704;2023-02-23T02:26:09;7.50;84.70
51719;DHT22;37795;53.236;5.704;2023-02-23T02:37:04;7.30;84.40
51719;DHT22;37795;53.236;5.704;2023-02-23T02:39:43;7.30;84.50
51719;DHT22;37795;53.236;5.704;2023-02-23T02:47:24;7.20;84.40
51719;DHT22;37795;53.236;5.704;2023-02-23T02:50:05;7.20;84.70
51719;DHT22;37795;53.236;5.704;2023-02-23T02:52:43;7.30;85.00
51719;DHT22;37795;53.236;5.704;2023-02-23T02:55:16;7.30;84.80
51719;DHT22;37795;53.236;5.704;2023-02-23T02:57:45;7.40;84.80
51719;DHT22;37795;53.236;5.704;2023-02-23T03:00:19;7.30;84.60
51719;DHT22;37795;53.236;5.704;2023-02-23T03:03:04;7.10;84.60
51719;DHT22;37795;53.236;5.704;2023-02-23T03:05:50;7.10;84.30
51719;DHT22;37795;53.236;5.704;2023-02-23T03:08:48;7.00;84.30
51719;DHT22;37795;53.236;5.704;2023-02-23T03:11:38;6.90;84.30
51719;DHT22;37795;53.236;5.704;2023-02-23T03:17:47;6.70;84.40
51719;DHT22;37795;53.236;5.704;2023-02-23T03:32:43;6.20;86.70
51719;DHT22;37795;53.236;5.704;2023-02-23T03:35:41;6.10;87.00
51719;DHT22;37795;53.236;5.704;2023-02-23T03:41:27;6.20;87.20
51719;DHT22;37795;53.236;5.704;2023-02-23T03:44:26;6.30;87.10
51719;DHT22;37795;53.236;5.704;2023-02-23T03:47:13;6.40;87.30
51719;DHT22;37795;53.236;5.704;2023-02-23T03:50:03;6.50;87.30
51719;DHT22;37795;53.236;5.704;2023-02-23T03:52:52;6.60;87.20
51719;DHT22;37795;53.236;5.704;2023-02-23T03:55:41;6.60;87.10
51719;DHT22;37795;53.236;5.704;2023-02-23T03:58:38;6.50;86.80
51719;DHT22;37795;53.236;5.704;2023-02-23T04:01:25;6.50;86.80
51719;DHT22;37795;53.236;5.704;2023-02-23T04:04:11;6.40;86.70
51719;DHT22;37795;53.236;5.704;2023-02-23T04:06:58;6.30;86.80
51719;DHT22;37795;53.236;5.704;2023-02-23T04:09:44;6.30;86.90
51719;DHT22;37795;53.236;5.704;2023-02-23T04:13:28;6.30;87.10
51719;DHT22;37795;53.236;5.704;2023-02-23T04:15:57;6.40;87.20
51719;DHT22;37795;53.236;5.704;2023-02-23T04:18:29;6.40;87.20
51719;DHT22;37795;53.236;5.704;2023-02-23T04:20:56;6.30;87.20
51719;DHT22;37795;53.236;5.704;2023-02-23T04:23:22;6.40;87.30
51719;DHT22;37795;53.236;5.704;2023-02-23T04:25:52;6.30;87.30
51719;DHT22;37795;53.236;5.704;2023-02-23T04:28:20;6.40;87.30
51719;DHT22;37795;53.236;5.704;2023-02-23T04:30:46;6.30;87.40
51719;DHT22;37795;53.236;5.704;2023-02-23T04:33:12;6.50;87.50
51719;DHT22;37795;53.236;5.704;2023-02-23T04:35:38;6.60;87.60
51719;DHT22;37795;53.236;5.704;2023-02-23T04:38:04;6.60;87.50
51719;DHT22;37795;53.236;5.704;2023-02-23T04:40:30;6.70;87.50
51719;DHT22;37795;53.236;5.704;2023-02-23T04:42:56;6.80;87.40
51719;DHT22;37795;53.236;5.704;2023-02-23T04:45:23;6.90;87.40
51719;DHT22;37795;53.236;5.704;2023-02-23T04:47:49;7.00;87.30
51719;DHT22;37795;53.236;5.704;2023-02-23T04:50:15;7.00;87.10
51719;DHT22;37795;53.236;5.704;2023-02-23T04:52:41;7.00;86.90
51719;DHT22;37795;53.236;5.704;2023-02-23T04:55:13;7.00;86.80
51719;DHT22;37795;53.236;5.704;2023-02-23T04:57:40;7.10;86.70
51719;DHT22;37795;53.236;5.704;2023-02-23T05:00:06;7.10;86.50
51719;DHT22;37795;53.236;5.704;2023-02-23T05:02:32;7.10;86.40
51719;DHT22;37795;53.236;5.704;2023-02-23T05:04:58;7.10;86.40
51719;DHT22;37795;53.236;5.704;2023-02-23T05:07:23;7.10;86.20
51719;DHT22;37795;53.236;5.704;2023-02-23T05:09:49;7.20;86.20
51719;DHT22;37795;53.236;5.704;2023-02-23T05:12:15;7.20;86.10
51719;DHT22;37795;53.236;5.704;2023-02-23T05:14:41;7.20;86.00
51719;DHT22;37795;53.236;5.704;2023-02-23T05:17:06;7.20;85.90
51719;DHT22;37795;53.236;5.704;2023-02-23T05:19:33;7.30;85.80
51719;DHT22;37795;53.236;5.704;2023-02-23T05:21:58;7.30;85.70
51719;DHT22;37795;53.236;5.704;2023-02-23T05:24:24;7.30;85.60
51719;DHT22;37795;53.236;5.704;2023-02-23T05:26:50;7.20;85.40
51719;DHT22;37795;53.236;5.704;2023-02-23T05:29:16;7.20;85.30
51719;DHT22;37795;53.236;5.704;2023-02-23T05:31:42;7.20;85.40
51719;DHT22;37795;53.236;5.704;2023-02-23T05:34:07;7.20;85.40
51719;DHT22;37795;53.236;5.704;2023-02-23T05:36:33;7.20;85.40
51719;DHT22;37795;53.236;5.704;2023-02-23T05:38:59;7.20;85.30
51719;DHT22;37795;53.236;5.704;2023-02-23T05:41:24;7.20;85.30
51719;DHT22;37795;53.236;5.704;2023-02-23T05:43:51;7.20;85.30
51719;DHT22;37795;53.236;5.704;2023-02-23T05:46:22;7.20;85.30
51719;DHT22;37795;53.236;5.704;2023-02-23T05:48:49;7.20;85.30
51719;DHT22;37795;53.236;5.704;2023-02-23T05:51:16;7.20;85.20
51719;DHT22;37795;53.236;5.704;2023-02-23T05:53:43;7.20;85.20
51719;DHT22;37795;53.236;5.704;2023-02-23T05:56:14;7.20;85.20
51719;DHT22;37795;53.236;5.704;2023-02-23T05:58:46;7.20;85.20
51719;DHT22;37795;53.236;5.704;2023-02-23T06:01:12;7.20;85.20
51719;DHT22;37795;53.236;5.704;2023-02-23T06:03:37;7.20;85.20
51719;DHT22;37795;53.236;5.704;2023-02-23T06:06:04;7.20;85.00
51719;DHT22;37795;53.236;5.704;2023-02-23T06:08:30;7.30;84.90
51719;DHT22;37795;53.236;5.704;2023-02-23T06:10:55;7.50;84.90
51719;DHT22;37795;53.236;5.704;2023-02-23T06:13:21;7.50;84.80
51719;DHT22;37795;53.236;5.704;2023-02-23T06:15:47;7.50;84.60
51719;DHT22;37795;53.236;5.704;2023-02-23T06:18:14;7.50;84.40
51719;DHT22;37795;53.236;5.704;2023-02-23T06:20:40;7.60;84.30
51719;DHT22;37795;53.236;5.704;2023-02-23T06:23:05;7.50;84.20
51719;DHT22;37795;53.236;5.704;2023-02-23T06:25:31;7.50;84.00
51719;DHT22;37795;53.236;5.704;2023-02-23T06:27:57;7.50;84.00
51719;DHT22;37795;53.236;5.704;2023-02-23T06:30:23;7.60;84.00
51719;DHT22;37795;53.236;5.704;2023-02-23T06:32:49;7.50;83.90
51719;DHT22;37795;53.236;5.704;2023-02-23T06:35:14;7.60;83.90
51719;DHT22;37795;53.236;5.704;2023-02-23T06:37:40;7.50;83.70
51719;DHT22;37795;53.236;5.704;2023-02-23T06:40:07;7.50;83.80
51719;DHT22;37795;53.236;5.704;2023-02-23T06:42:33;7.60;83.80
51719;DHT22;37795;53.236;5.704;2023-02-23T06:45:00;7.50;83.60
51719;DHT22;37795;53.236;5.704;2023-02-23T06:47:26;7.50;83.50
51719;DHT22;37795;53.236;5.704;2023-02-23T06:49:51;7.40;83.60
51719;DHT22;37795;53.236;5.704;2023-02-23T06:57:41;7.80;82.70
51719;DHT22;37795;53.236;5.704;2023-02-23T07:00:07;7.40;83.40
51719;DHT22;37795;53.236;5.704;2023-02-23T07:02:33;7.40;83.40
51719;DHT22;37795;53.236;5.704;2023-02-23T07:05:01;7.40;83.40
51719;DHT22;37795;53.236;5.704;2023-02-23T07:07:27;7.40;83.50
51719;DHT22;37795;53.236;5.704;2023-02-23T07:09:52;7.40;83.30
51719;DHT22;37795;53.236;5.704;2023-02-23T07:12:18;7.40;83.30
51719;DHT22;37795;53.236;5.704;2023-02-23T07:14:44;7.30;83.30
51719;DHT22;37795;53.236;5.704;2023-02-23T07:17:09;7.30;83.30
51719;DHT22;37795;53.236;5.704;2023-02-23T07:19:35;7.30;83.30
51719;DHT22;37795;53.236;5.704;2023-02-23T07:22:01;7.30;83.20
51719;DHT22;37795;53.236;5.704;2023-02-23T07:24:27;7.30;83.10
51719;DHT22;37795;53.236;5.704;2023-02-23T07:26:53;7.30;83.00
51719;DHT22;37795;53.236;5.704;2023-02-23T07:29:19;7.30;83.00
51719;DHT22;37795;53.236;5.704;2023-02-23T07:31:45;7.30;83.00
51719;DHT22;37795;53.236;5.704;2023-02-23T07:34:11;7.30;82.90
51719;DHT22;37795;53.236;5.704;2023-02-23T07:36:37;7.40;82.90
51719;DHT22;37795;53.236;5.704;2023-02-23T07:39:03;7.40;82.90
51719;DHT22;37795;53.236;5.704;2023-02-23T07:41:30;7.40;82.90
51719;DHT22;37795;53.236;5.704;2023-02-23T07:43:57;7.40;82.80
51719;DHT22;37795;53.236;5.704;2023-02-23T07:46:23;7.40;82.80
51719;DHT22;37795;53.236;5.704;2023-02-23T07:48:49;7.40;82.80
51719;DHT22;37795;53.236;5.704;2023-02-23T07:51:15;7.40;82.80
51719;DHT22;37795;53.236;5.704;2023-02-23T07:53:42;7.50;82.90
51719;DHT22;37795;53.236;5.704;2023-02-23T07:56:09;7.50;82.90
51719;DHT22;37795;53.236;5.704;2023-02-23T07:58:37;7.50;83.00
51719;DHT22;37795;53.236;5.704;2023-02-23T08:01:03;7.60;83.10
51719;DHT22;37795;53.236;5.704;2023-02-23T08:03:29;7.60;83.10
51719;DHT22;37795;53.236;5.704;2023-02-23T08:05:55;7.60;83.10
51719;DHT22;37795;53.236;5.704;2023-02-23T08:08:20;7.70;83.10
51719;DHT22;37795;53.236;5.704;2023-02-23T08:10:46;7.70;83.20
51719;DHT22;37795;53.236;5.704;2023-02-23T08:13:16;7.60;83.20
51719;DHT22;37795;53.236;5.704;2023-02-23T08:15:42;7.60;83.20
51719;DHT22;37795;53.236;5.704;2023-02-23T08:18:08;7.60;83.40
51719;DHT22;37795;53.236;5.704;2023-02-23T08:20:34;7.60;83.40
51719;DHT22;37795;53.236;5.704;2023-02-23T08:23:00;7.60;83.50
51719;DHT22;37795;53.236;5.704;2023-02-23T08:25:26;7.60;83.60
51719;DHT22;37795;53.236;5.704;2023-02-23T08:27:52;7.70;83.70
51719;DHT22;37795;53.236;5.704;2023-02-23T08:30:21;7.70;83.70
51719;DHT22;37795;53.236;5.704;2023-02-23T08:32:48;7.70;83.90
51719;DHT22;37795;53.236;5.704;2023-02-23T08:35:15;7.80;83.90
51719;DHT22;37795;53.236;5.704;2023-02-23T08:37:43;7.80;83.90
51719;DHT22;37795;53.236;5.704;2023-02-23T08:40:10;7.70;83.80
51719;DHT22;37795;53.236;5.704;2023-02-23T08:42:36;7.80;83.90
51719;DHT22;37795;53.236;5.704;2023-02-23T08:45:02;7.80;83.90
51719;DHT22;37795;53.236;5.704;2023-02-23T08:47:28;7.80;84.00
51719;DHT22;37795;53.236;5.704;2023-02-23T08:49:54;7.80;84.10
51719;DHT22;37795;53.236;5.704;2023-02-23T08:52:20;7.90;84.00
51719;DHT22;37795;53.236;5.704;2023-02-23T08:54:46;7.90;84.00
51719;DHT22;37795;53.236;5.704;2023-02-23T08:57:12;7.90;84.00
51719;DHT22;37795;53.236;5.704;2023-02-23T08:59:38;8.10;84.10
51719;DHT22;37795;53.236;5.704;2023-02-23T09:02:05;8.10;84.10
51719;DHT22;37795;53.236;5.704;2023-02-23T09:04:33;8.10;84.10
51719;DHT22;37795;53.236;5.704;2023-02-23T09:07:03;8.20;84.00
51719;DHT22;37795;53.236;5.704;2023-02-23T09:09:29;8.20;84.00
51719;DHT22;37795;53.236;5.704;2023-02-23T09:11:54;8.20;84.00
51719;DHT22;37795;53.236;5.704;2023-02-23T09:14:20;8.30;83.90
51719;DHT22;37795;53.236;5.704;2023-02-23T09:16:46;8.30;84.00
51719;DHT22;37795;53.236;5.704;2023-02-23T09:19:12;8.30;83.90
51719;DHT22;37795;53.236;5.704;2023-02-23T09:21:38;8.30;83.90
51719;DHT22;37795;53.236;5.704;2023-02-23T09:24:04;8.30;84.00
51719;DHT22;37795;53.236;5.704;2023-02-23T09:26:31;8.30;83.90
51719;DHT22;37795;53.236;5.704;2023-02-23T09:28:59;8.30;83.80
51719;DHT22;37795;53.236;5.704;2023-02-23T09:31:25;8.40;83.70
51719;DHT22;37795;53.236;5.704;2023-02-23T09:33:52;8.40;83.70
51719;DHT22;37795;53.236;5.704;2023-02-23T09:36:21;8.40;83.70
51719;DHT22;37795;53.236;5.704;2023-02-23T09:38:49;8.30;83.60
51719;DHT22;37795;53.236;5.704;2023-02-23T09:49:23;8.40;83.70
51719;DHT22;37795;53.236;5.704;2023-02-23T09:51:52;8.40;83.70
51719;DHT22;37795;53.236;5.704;2023-02-23T09:54:24;8.50;83.70
51719;DHT22;37795;53.236;5.704;2023-02-23T09:56:52;8.50;83.70
51719;DHT22;37795;53.236;5.704;2023-02-23T09:59:20;8.60;83.70
51719;DHT22;37795;53.236;5.704;2023-02-23T10:07:36;8.70;83.30
51719;DHT22;37795;53.236;5.704;2023-02-23T10:13:11;8.90;83.20
51719;DHT22;37795;53.236;5.704;2023-02-23T10:15:46;8.90;83.00
51719;DHT22;37795;53.236;5.704;2023-02-23T10:23:09;8.90;82.60
51719;DHT22;37795;53.236;5.704;2023-02-23T10:25:42;9.00;82.50
51719;DHT22;37795;53.236;5.704;2023-02-23T10:28:15;9.00;82.50
51719;DHT22;37795;53.236;5.704;2023-02-23T10:30:41;9.00;82.40
51719;DHT22;37795;53.236;5.704;2023-02-23T10:33:34;9.00;82.30
51719;DHT22;37795;53.236;5.704;2023-02-23T10:36:17;9.10;82.20
51719;DHT22;37795;53.236;5.704;2023-02-23T10:38:46;9.10;82.00
51719;DHT22;37795;53.236;5.704;2023-02-23T10:41:12;9.10;81.80
51719;DHT22;37795;53.236;5.704;2023-02-23T10:43:38;9.00;81.90
51719;DHT22;37795;53.236;5.704;2023-02-23T10:46:04;9.00;81.80
51719;DHT22;37795;53.236;5.704;2023-02-23T10:48:35;9.00;81.80
51719;DHT22;37795;53.236;5.704;2023-02-23T10:57:41;9.20;81.80
51719;DHT22;37795;53.236;5.704;2023-02-23T11:02:43;8.90;82.10
51719;DHT22;37795;53.236;5.704;2023-02-23T11:05:34;8.90;82.10
51719;DHT22;37795;53.236;5.704;2023-02-23T11:08:16;8.90;82.30
51719;DHT22;37795;53.236;5.704;2023-02-23T11:10:57;8.90;82.40
51719;DHT22;37795;53.236;5.704;2023-02-23T11:13:25;8.90;82.60
51719;DHT22;37795;53.236;5.704;2023-02-23T11:16:00;8.90;82.80
51719;DHT22;37795;53.236;5.704;2023-02-23T11:18:27;8.80;83.00
51719;DHT22;37795;53.236;5.704;2023-02-23T11:20:53;8.90;83.10
51719;DHT22;37795;53.236;5.704;2023-02-23T11:23:28;8.90;83.10
51719;DHT22;37795;53.236;5.704;2023-02-23T11:25:57;8.80;83.30
51719;DHT22;37795;53.236;5.704;2023-02-23T11:28:36;8.80;83.20
51719;DHT22;37795;53.236;5.704;2023-02-23T11:31:14;8.80;83.30
51719;DHT22;37795;53.236;5.704;2023-02-23T11:33:42;8.60;82.90
51719;DHT22;37795;53.236;5.704;2023-02-23T11:38:44;8.50;83.40
51719;DHT22;37795;53.236;5.704;2023-02-23T11:41:22;8.50;83.60
51719;DHT22;37795;53.236;5.704;2023-02-23T11:43:57;8.50;83.80
51719;DHT22;37795;53.236;5.704;2023-02-23T11:46:24;8.50;83.90
51719;DHT22;37795;53.236;5.704;2023-02-23T11:48:59;8.30;83.60
51719;DHT22;37795;53.236;5.704;2023-02-23T11:51:39;8.50;84.10
51719;DHT22;37795;53.236;5.704;2023-02-23T11:54:07;8.50;83.90
51719;DHT22;37795;53.236;5.704;2023-02-23T11:56:47;8.50;83.80
51719;DHT22;37795;53.236;5.704;2023-02-23T11:59:18;8.30;83.50
51719;DHT22;37795;53.236;5.704;2023-02-23T12:01:51;8.20;83.10
51719;DHT22;37795;53.236;5.704;2023-02-23T12:04:37;8.20;83.50
51719;DHT22;37795;53.236;5.704;2023-02-23T12:10:01;8.10;83.60
51719;DHT22;37795;53.236;5.704;2023-02-23T12:12:30;8.10;83.30
51719;DHT22;37795;53.236;5.704;2023-02-23T12:15:05;7.90;82.80
51719;DHT22;37795;53.236;5.704;2023-02-23T12:17:40;8.00;83.50
51719;DHT22;37795;53.236;5.704;2023-02-23T12:20:19;8.20;83.40
51719;DHT22;37795;53.236;5.704;2023-02-23T12:22:51;8.20;83.00
51719;DHT22;37795;53.236;5.704;2023-02-23T12:28:28;7.90;81.90
51719;DHT22;37795;53.236;5.704;2023-02-23T12:31:21;8.00;81.20
51719;DHT22;37795;53.236;5.704;2023-02-23T12:33:56;8.10;80.80
51719;DHT22;37795;53.236;5.704;2023-02-23T12:39:27;7.90;79.30
51719;DHT22;37795;53.236;5.704;2023-02-23T12:44:51;7.90;78.00
51719;DHT22;37795;53.236;5.704;2023-02-23T12:47:34;7.90;78.00
51719;DHT22;37795;53.236;5.704;2023-02-23T12:50:10;8.00;78.10
51719;DHT22;37795;53.236;5.704;2023-02-23T12:52:46;8.00;78.20
51719;DHT22;37795;53.236;5.704;2023-02-23T12:55:15;8.20;79.10
51719;DHT22;37795;53.236;5.704;2023-02-23T12:57:45;8.20;79.20
51719;DHT22;37795;53.236;5.704;2023-02-23T13:00:38;8.10;79.10
51719;DHT22;37795;53.236;5.704;2023-02-23T13:03:25;8.00;78.50
51719;DHT22;37795;53.236;5.704;2023-02-23T13:06:24;8.10;78.80
51719;DHT22;37795;53.236;5.704;2023-02-23T13:20:16;7.90;77.40
51719;DHT22;37795;53.236;5.704;2023-02-23T13:25:31;8.10;79.60
51719;DHT22;37795;53.236;5.704;2023-02-23T13:28:02;8.00;79.90
51719;DHT22;37795;53.236;5.704;2023-02-23T13:30:29;8.10;80.40
51719;DHT22;37795;53.236;5.704;2023-02-23T13:33:16;8.00;80.40
51719;DHT22;37795;53.236;5.704;2023-02-23T13:35:43;8.00;80.50
51719;DHT22;37795;53.236;5.704;2023-02-23T13:43:44;7.70;79.50
51719;DHT22;37795;53.236;5.704;2023-02-23T13:46:17;7.70;80.50
51719;DHT22;37795;53.236;5.704;2023-02-23T13:51:26;7.60;80.80
51719;DHT22;37795;53.236;5.704;2023-02-23T13:54:21;7.60;80.60
51719;DHT22;37795;53.236;5.704;2023-02-23T13:56:55;7.70;81.00
51719;DHT22;37795;53.236;5.704;2023-02-23T13:59:27;7.70;80.60
51719;DHT22;37795;53.236;5.704;2023-02-23T14:01:54;7.70;80.30
51719;DHT22;37795;53.236;5.704;2023-02-23T14:04:33;7.60;79.80
51719;DHT22;37795;53.236;5.704;2023-02-23T14:09:40;7.50;79.40
51719;DHT22;37795;53.236;5.704;2023-02-23T14:12:38;7.60;79.60
51719;DHT22;37795;53.236;5.704;2023-02-23T14:29:22;7.90;77.80
51719;DHT22;37795;53.236;5.704;2023-02-23T14:32:02;7.70;74.90
51719;DHT22;37795;53.236;5.704;2023-02-23T14:34:53;7.50;74.90
51719;DHT22;37795;53.236;5.704;2023-02-23T14:37:40;7.40;74.50
51719;DHT22;37795;53.236;5.704;2023-02-23T14:42:37;7.80;75.80
51719;DHT22;37795;53.236;5.704;2023-02-23T14:45:28;7.80;75.20
51719;DHT22;37795;53.236;5.704;2023-02-23T14:48:12;7.60;73.60
51719;DHT22;37795;53.236;5.704;2023-02-23T14:50:40;7.60;73.40
51719;DHT22;37795;53.236;5.704;2023-02-23T14:53:15;7.80;74.50
51719;DHT22;37795;53.236;5.704;2023-02-23T14:55:43;7.40;73.20
51719;DHT22;37795;53.236;5.704;2023-02-23T14:58:26;7.50;73.80
51719;DHT22;37795;53.236;5.704;2023-02-23T15:00:52;7.70;74.20
51719;DHT22;37795;53.236;5.704;2023-02-23T15:03:18;7.70;74.80
51719;DHT22;37795;53.236;5.704;2023-02-23T15:08:19;7.90;75.20
51719;DHT22;37795;53.236;5.704;2023-02-23T15:10:49;7.90;75.10
51719;DHT22;37795;53.236;5.704;2023-02-23T15:13:32;7.80;74.20
51719;DHT22;37795;53.236;5.704;2023-02-23T15:16:12;7.60;72.70
51719;DHT22;37795;53.236;5.704;2023-02-23T15:18:41;7.70;73.30
51719;DHT22;37795;53.236;5.704;2023-02-23T15:21:14;7.80;74.20
51719;DHT22;37795;53.236;5.704;2023-02-23T15:23:43;7.70;73.50
51719;DHT22;37795;53.236;5.704;2023-02-23T15:26:17;7.70;73.40
51719;DHT22;37795;53.236;5.704;2023-02-23T15:28:45;7.60;73.30
51719;DHT22;37795;53.236;5.704;2023-02-23T15:31:11;7.80;74.90
51719;DHT22;37795;53.236;5.704;2023-02-23T15:33:37;7.90;75.10
51719;DHT22;37795;53.236;5.704;2023-02-23T15:38:46;7.70;74.10
51719;DHT22;37795;53.236;5.704;2023-02-23T15:41:27;7.80;74.40
51719;DHT22;37795;53.236;5.704;2023-02-23T15:44:08;7.80;74.40
51719;DHT22;37795;53.236;5.704;2023-02-23T15:46:36;7.90;74.50
51719;DHT22;37795;53.236;5.704;2023-02-23T15:49:03;7.90;74.10
51719;DHT22;37795;53.236;5.704;2023-02-23T15:51:32;7.90;73.90
51719;DHT22;37795;53.236;5.704;2023-02-23T15:54:01;7.80;73.80
51719;DHT22;37795;53.236;5.704;2023-02-23T15:56:28;7.80;73.90
51719;DHT22;37795;53.236;5.704;2023-02-23T15:59:00;7.80;73.30
51719;DHT22;37795;53.236;5.704;2023-02-23T16:01:28;7.80;73.40
51719;DHT22;37795;53.236;5.704;2023-02-23T16:06:39;7.80;72.50
51719;DHT22;37795;53.236;5.704;2023-02-23T16:14:21;8.30;69.20
51719;DHT22;37795;53.236;5.704;2023-02-23T16:16:49;8.00;69.60
51719;DHT22;37795;53.236;5.704;2023-02-23T16:19:18;7.80;70.00
51719;DHT22;37795;53.236;5.704;2023-02-23T16:21:54;7.80;71.40
51719;DHT22;37795;53.236;5.704;2023-02-23T16:24:24;7.60;71.60
51719;DHT22;37795;53.236;5.704;2023-02-23T16:27:00;7.50;71.60
51719;DHT22;37795;53.236;5.704;2023-02-23T16:29:32;7.40;71.10
51719;DHT22;37795;53.236;5.704;2023-02-23T16:32:08;7.20;70.60
51719;DHT22;37795;53.236;5.704;2023-02-23T16:34:47;7.20;70.60
51719;DHT22;37795;53.236;5.704;2023-02-23T16:37:16;7.10;69.80
51719;DHT22;37795;53.236;5.704;2023-02-23T16:39:43;7.20;71.00
51719;DHT22;37795;53.236;5.704;2023-02-23T16:42:32;7.20;71.80
51719;DHT22;37795;53.236;5.704;2023-02-23T16:44:59;7.20;72.10
51719;DHT22;37795;53.236;5.704;2023-02-23T16:47:39;7.20;72.50
51719;DHT22;37795;53.236;5.704;2023-02-23T16:50:16;7.20;72.40
51719;DHT22;37795;53.236;5.704;2023-02-23T16:52:46;7.10;72.50
51719;DHT22;37795;53.236;5.704;2023-02-23T16:55:17;7.10;72.40
51719;DHT22;37795;53.236;5.704;2023-02-23T16:57:47;7.10;73.10
51719;DHT22;37795;53.236;5.704;2023-02-23T17:00:24;7.10;73.60
51719;DHT22;37795;53.236;5.704;2023-02-23T17:02:50;7.10;73.90
51719;DHT22;37795;53.236;5.704;2023-02-23T17:05:19;7.00;73.60
51719;DHT22;37795;53.236;5.704;2023-02-23T17:07:46;7.00;74.00
51719;DHT22;37795;53.236;5.704;2023-02-23T17:10:33;6.90;73.70
51719;DHT22;37795;53.236;5.704;2023-02-23T17:13:02;6.80;73.40
51719;DHT22;37795;53.236;5.704;2023-02-23T17:15:36;6.70;73.50
51719;DHT22;37795;53.236;5.704;2023-02-23T17:18:03;6.60;73.70
51719;DHT22;37795;53.236;5.704;2023-02-23T17:20:29;6.50;73.60
51719;DHT22;37795;53.236;5.704;2023-02-23T17:23:01;6.40;73.00
51719;DHT22;37795;53.236;5.704;2023-02-23T17:25:27;6.10;72.60
51719;DHT22;37795;53.236;5.704;2023-02-23T17:27:57;6.10;72.50
51719;DHT22;37795;53.236;5.704;2023-02-23T17:30:24;5.90;72.30
51719;DHT22;37795;53.236;5.704;2023-02-23T17:32:51;5.90;72.40
51719;DHT22;37795;53.236;5.704;2023-02-23T17:35:18;5.80;72.40
51719;DHT22;37795;53.236;5.704;2023-02-23T17:37:44;5.60;72.60
51719;DHT22;37795;53.236;5.704;2023-02-23T17:40:16;5.50;72.60
51719;DHT22;37795;53.236;5.704;2023-02-23T17:42:43;5.00;71.90
51719;DHT22;37795;53.236;5.704;2023-02-23T17:45:09;4.90;72.70
51719;DHT22;37795;53.236;5.704;2023-02-23T17:47:36;4.90;72.90
51719;DHT22;37795;53.236;5.704;2023-02-23T17:50:04;4.90;73.20
51719;DHT22;37795;53.236;5.704;2023-02-23T17:52:30;4.80;73.50
51719;DHT22;37795;53.236;5.704;2023-02-23T17:54:56;4.80;73.70
51719;DHT22;37795;53.236;5.704;2023-02-23T17:57:22;4.80;74.00
51719;DHT22;37795;53.236;5.704;2023-02-23T17:59:48;4.80;74.20
51719;DHT22;37795;53.236;5.704;2023-02-23T18:02:16;4.80;74.10
51719;DHT22;37795;53.236;5.704;2023-02-23T18:04:43;5.00;74.80
51719;DHT22;37795;53.236;5.704;2023-02-23T18:07:09;5.00;74.80
51719;DHT22;37795;53.236;5.704;2023-02-23T18:09:36;5.00;74.60
51719;DHT22;37795;53.236;5.704;2023-02-23T18:12:02;4.90;73.90
51719;DHT22;37795;53.236;5.704;2023-02-23T18:14:27;4.90;73.60
51719;DHT22;37795;53.236;5.704;2023-02-23T18:16:53;4.80;73.10
51719;DHT22;37795;53.236;5.704;2023-02-23T18:19:19;4.70;72.80
51719;DHT22;37795;53.236;5.704;2023-02-23T18:21:45;4.70;72.50
51719;DHT22;37795;53.236;5.704;2023-02-23T18:24:11;4.70;72.40
51719;DHT22;37795;53.236;5.704;2023-02-23T18:26:38;4.70;72.50
51719;DHT22;37795;53.236;5.704;2023-02-23T18:29:04;4.70;72.60
51719;DHT22;37795;53.236;5.704;2023-02-23T18:31:31;4.60;72.40
51719;DHT22;37795;53.236;5.704;2023-02-23T18:33:57;4.80;73.50